createdAt,value
2019-01-26T00:00:10.725Z,97288.66
2019-01-26T00:01:14.101Z,97282.02
2019-01-26T00:02:16.977Z,97282.02
2019-01-26T00:03:19.890Z,97280.69
2019-01-26T00:04:25.163Z,97280.69
2019-01-26T00:05:30.622Z,97288.91
2019-01-26T00:06:34.690Z,97288.91
2019-01-26T00:07:38.469Z,97282.11
2019-01-26T00:08:41.373Z,97284.52
2019-01-26T00:09:44.344Z,97283.50
2019-01-26T00:10:49.995Z,97276.83
2019-01-26T00:11:52.975Z,97281.92
2019-01-26T00:13:00.993Z,97276.30
2019-01-26T00:14:04.217Z,97284.31
2019-01-26T00:15:12.314Z,97280.30
2019-01-26T00:16:21.200Z,97280.30
2019-01-26T00:17:25.655Z,97271.45
2019-01-26T00:18:28.544Z,97274.13
2019-01-26T00:19:31.404Z,97274.13
2019-01-26T00:20:36.562Z,97274.91
2019-01-26T00:21:40.197Z,97274.91
2019-01-26T00:22:43.100Z,97275.17
2019-01-26T00:23:47.289Z,97274.09
2019-01-26T00:24:50.269Z,97275.44
2019-01-26T00:25:54.521Z,97275.99
2019-01-26T00:26:59.368Z,97275.99
2019-01-26T00:28:02.269Z,97272.23
2019-01-26T00:29:05.182Z,97269.03
2019-01-26T00:30:08.730Z,97271.95
2019-01-26T00:31:11.619Z,97270.63
2019-01-26T00:32:18.770Z,97270.63
2019-01-26T00:33:26.761Z,97269.00
2019-01-26T00:34:30.263Z,97269.00
2019-01-26T00:35:33.521Z,97261.52
2019-01-26T00:36:39.242Z,97265.80
2019-01-26T00:37:42.118Z,97268.74
2019-01-26T00:38:47.814Z,97263.09
2019-01-26T00:39:53.799Z,97260.70
2019-01-26T00:40:56.711Z,97257.97
2019-01-26T00:41:59.660Z,97259.05
2019-01-26T00:43:02.536Z,97253.20
2019-01-26T00:44:05.745Z,97255.61
2019-01-26T00:45:08.972Z,97249.70
2019-01-26T00:46:14.917Z,97249.70
2019-01-26T00:47:17.705Z,97250.20
2019-01-26T00:48:20.722Z,97249.47
2019-01-26T00:49:23.962Z,97251.56
2019-01-26T00:50:27.100Z,97245.66
2019-01-26T00:51:32.798Z,97240.85
2019-01-26T00:52:38.686Z,97244.05
2019-01-26T00:53:41.498Z,97245.13
2019-01-26T00:54:44.480Z,97242.98
2019-01-26T00:55:50.504Z,97240.83
2019-01-26T00:57:01.576Z,97237.88
2019-01-26T00:58:04.927Z,97238.41
2019-01-26T00:59:07.760Z,97237.59
2019-01-26T01:00:11.014Z,97239.45
2019-01-26T01:01:13.930Z,97232.49
2019-01-26T01:02:16.913Z,97229.84
2019-01-26T01:03:20.119Z,97230.08
2019-01-26T01:04:23.324Z,97233.80
2019-01-26T01:05:26.363Z,97236.75
2019-01-26T01:06:29.111Z,97236.75
2019-01-26T01:07:31.882Z,97244.27
2019-01-26T01:08:37.561Z,97246.65
2019-01-26T01:09:43.409Z,97250.93
2019-01-26T01:10:46.818Z,97250.93
2019-01-26T01:11:49.787Z,97247.44
2019-01-26T01:12:52.673Z,97245.28
2019-01-26T01:13:55.866Z,97239.11
2019-01-26T01:14:58.615Z,97235.94
2019-01-26T01:16:01.656Z,97235.11
2019-01-26T01:17:06.282Z,97217.77
2019-01-26T01:18:14.141Z,97233.25
2019-01-26T01:19:17.104Z,97234.86
2019-01-26T01:20:21.672Z,97233.52
2019-01-26T01:21:24.525Z,97233.52
2019-01-26T01:22:27.523Z,97240.45
2019-01-26T01:23:30.725Z,97230.05
2019-01-26T01:24:33.640Z,97240.41
2019-01-26T01:25:36.426Z,97235.88
2019-01-26T01:26:44.263Z,97236.66
2019-01-26T01:27:47.141Z,97235.84
2019-01-26T01:28:49.920Z,97231.00
2019-01-26T01:29:53.284Z,97233.66
2019-01-26T01:30:56.082Z,97235.02
2019-01-26T01:32:01.363Z,97233.69
2019-01-26T01:33:04.567Z,97233.69
2019-01-26T01:34:07.309Z,97236.13
2019-01-26T01:35:10.773Z,97236.95
2019-01-26T01:36:13.933Z,97224.34
2019-01-26T01:37:16.756Z,97224.34
2019-01-26T01:38:19.563Z,97228.94
2019-01-26T01:39:22.413Z,97236.95
2019-01-26T01:40:25.188Z,97236.95
2019-01-26T01:41:27.922Z,97222.47
2019-01-26T01:42:31.011Z,97220.88
2019-01-26T01:43:33.771Z,97213.63
2019-01-26T01:44:36.664Z,97228.85
2019-01-26T01:45:39.459Z,97216.53
2019-01-26T01:46:43.006Z,97224.02
2019-01-26T01:47:46.174Z,97220.78
2019-01-26T01:48:49.294Z,97220.78
2019-01-26T01:49:52.049Z,97212.22
2019-01-26T01:50:55.223Z,97212.22
2019-01-26T01:51:59.997Z,97215.12
2019-01-26T01:53:05.271Z,97218.33
2019-01-26T01:54:09.903Z,97206.80
2019-01-26T01:55:16.060Z,97211.86
2019-01-26T01:56:18.883Z,97207.52
2019-01-26T01:57:21.815Z,97211.57
2019-01-26T01:58:24.559Z,97213.47
2019-01-26T01:59:27.769Z,97212.94
2019-01-26T02:00:30.635Z,97212.94
2019-01-26T02:01:33.812Z,97213.23
2019-01-26T02:02:36.563Z,97208.92
2019-01-26T02:03:39.311Z,97209.48
2019-01-26T02:04:42.116Z,97208.13
2019-01-26T02:05:45.410Z,97212.42
2019-01-26T02:06:48.283Z,97214.84
2019-01-26T02:07:51.302Z,97210.98
2019-01-26T02:08:54.130Z,97215.33
2019-01-26T02:09:56.882Z,97205.98
2019-01-26T02:11:00.156Z,97205.98
2019-01-26T02:12:03.418Z,97207.32
2019-01-26T02:13:06.212Z,97207.32
2019-01-26T02:14:09.376Z,97200.88
2019-01-26T02:15:12.168Z,97200.88
2019-01-26T02:16:20.168Z,97200.33
2019-01-26T02:17:22.507Z,97200.33
2019-01-26T02:18:25.229Z,97199.55
2019-01-26T02:19:28.032Z,97194.73
2019-01-26T02:20:32.326Z,97194.73
2019-01-26T02:21:35.188Z,97190.16
2019-01-26T02:22:37.906Z,97187.48
2019-01-26T02:23:40.809Z,97187.48
2019-01-26T02:24:43.702Z,97189.87
2019-01-26T02:25:46.969Z,97182.34
2019-01-26T02:26:50.079Z,97182.34
2019-01-26T02:27:53.905Z,97186.08
2019-01-26T02:28:56.817Z,97187.13
2019-01-26T02:29:59.656Z,97188.20
2019-01-26T02:31:02.513Z,97188.20
2019-01-26T02:32:05.298Z,97189.02
2019-01-26T02:33:09.994Z,97192.74
2019-01-26T02:34:12.710Z,97192.74
2019-01-26T02:35:15.554Z,97196.73
2019-01-26T02:36:18.283Z,97195.13
2019-01-26T02:37:21.150Z,97191.11
2019-01-26T02:38:23.861Z,97186.83
2019-01-26T02:39:28.082Z,97186.01
2019-01-26T02:40:30.804Z,97180.64
2019-01-26T02:41:34.109Z,97179.60
2019-01-26T02:42:36.908Z,97181.20
2019-01-26T02:43:39.727Z,97176.66
2019-01-26T02:44:42.444Z,97181.23
2019-01-26T02:45:45.659Z,97186.86
2019-01-26T02:46:48.457Z,97177.78
2019-01-26T02:47:51.287Z,97180.16
2019-01-26T02:48:54.041Z,97192.97
2019-01-26T02:49:56.793Z,97188.69
2019-01-26T02:50:59.899Z,97192.19
2019-01-26T02:52:02.715Z,97191.34
2019-01-26T02:53:05.667Z,97191.34
2019-01-26T02:54:08.825Z,97190.25
2019-01-26T02:55:11.649Z,97186.27
2019-01-26T02:56:14.445Z,97182.77
2019-01-26T02:57:20.486Z,97183.84
2019-01-26T02:58:23.243Z,97183.84
2019-01-26T02:59:26.181Z,97172.28
2019-01-26T03:00:29.061Z,97176.81
2019-01-26T03:01:31.853Z,97173.31
2019-01-26T03:02:34.664Z,97172.83
2019-01-26T03:03:37.746Z,97167.80
2019-01-26T03:04:44.061Z,97169.59
2019-01-26T03:05:46.862Z,97172.83
2019-01-26T03:06:50.111Z,97169.33
2019-01-26T03:07:53.008Z,97171.16
2019-01-26T03:08:56.514Z,97172.28
2019-01-26T03:09:59.996Z,97172.28
2019-01-26T03:11:02.843Z,97168.70
2019-01-26T03:12:05.681Z,97162.30
2019-01-26T03:13:08.491Z,97162.30
2019-01-26T03:14:11.505Z,97165.80
2019-01-26T03:15:14.280Z,97174.92
2019-01-26T03:16:17.406Z,97161.48
2019-01-26T03:17:20.215Z,97170.02
2019-01-26T03:18:22.956Z,97162.52
2019-01-26T03:19:25.762Z,97162.00
2019-01-26T03:20:28.539Z,97153.73
2019-01-26T03:21:31.321Z,97153.73
2019-01-26T03:22:34.426Z,97151.91
2019-01-26T03:23:37.346Z,97155.41
2019-01-26T03:24:40.090Z,97155.41
2019-01-26T03:25:42.832Z,97163.16
2019-01-26T03:26:46.018Z,97163.75
2019-01-26T03:27:48.751Z,97173.35
2019-01-26T03:28:53.015Z,97172.23
2019-01-26T03:29:55.835Z,97167.95
2019-01-26T03:30:58.750Z,97162.78
2019-01-26T03:32:01.551Z,97162.78
2019-01-26T03:33:04.325Z,97155.27
2019-01-26T03:34:07.555Z,97157.13
2019-01-26T03:35:11.194Z,97157.13
2019-01-26T03:36:14.079Z,97160.26
2019-01-26T03:37:17.629Z,97153.59
2019-01-26T03:38:20.423Z,97158.69
2019-01-26T03:39:23.228Z,97158.39
2019-01-26T03:40:25.948Z,97153.03
2019-01-26T03:41:28.703Z,97153.81
2019-01-26T03:42:31.498Z,97153.81
2019-01-26T03:43:34.331Z,97149.97
2019-01-26T03:44:37.581Z,97148.59
2019-01-26T03:45:40.919Z,97144.58
2019-01-26T03:46:43.757Z,97139.47
2019-01-26T03:47:46.648Z,97137.61
2019-01-26T03:48:49.472Z,97137.65
2019-01-26T03:49:53.703Z,97132.92
2019-01-26T03:50:56.937Z,97140.11
2019-01-26T03:52:00.558Z,97148.41
2019-01-26T03:53:03.379Z,97143.31
2019-01-26T03:54:06.182Z,97139.28
2019-01-26T03:55:08.985Z,97141.19
2019-01-26T03:56:11.913Z,97141.19
2019-01-26T03:57:14.735Z,97141.14
2019-01-26T03:58:17.975Z,97141.33
2019-01-26T03:59:20.690Z,97146.14
2019-01-26T04:00:23.519Z,97143.79
2019-01-26T04:01:26.304Z,97141.63
2019-01-26T04:02:29.219Z,97142.89
2019-01-26T04:03:32.213Z,97145.31
2019-01-26T04:04:35.920Z,97150.94
2019-01-26T04:05:38.728Z,97152.84
2019-01-26T04:06:41.680Z,97152.84
2019-01-26T04:07:44.651Z,97145.13
2019-01-26T04:08:47.379Z,97150.42
2019-01-26T04:09:50.210Z,97147.99
2019-01-26T04:10:53.478Z,97153.31
2019-01-26T04:11:56.603Z,97153.31
2019-01-26T04:12:59.339Z,97149.30
2019-01-26T04:14:02.233Z,97149.30
2019-01-26T04:15:05.037Z,97152.24
2019-01-26T04:16:07.830Z,97146.05
2019-01-26T04:17:11.810Z,97146.05
2019-01-26T04:18:14.537Z,97137.72
2019-01-26T04:19:17.277Z,97136.92
2019-01-26T04:20:20.124Z,97139.02
2019-01-26T04:21:22.932Z,97127.46
2019-01-26T04:22:25.824Z,97121.58
2019-01-26T04:23:28.941Z,97121.58
2019-01-26T04:24:32.224Z,97119.45
2019-01-26T04:25:35.493Z,97115.77
2019-01-26T04:26:38.232Z,97119.80
2019-01-26T04:27:41.115Z,97121.92
2019-01-26T04:28:43.849Z,97116.00
2019-01-26T04:29:47.023Z,97121.92
2019-01-26T04:30:49.845Z,97126.45
2019-01-26T04:31:52.635Z,97126.45
2019-01-26T04:32:55.401Z,97125.38
2019-01-26T04:33:58.208Z,97125.38
2019-01-26T04:35:01.489Z,97124.30
2019-01-26T04:36:06.174Z,97123.44
2019-01-26T04:37:09.371Z,97123.40
2019-01-26T04:38:12.122Z,97122.27
2019-01-26T04:39:14.977Z,97113.37
2019-01-26T04:40:18.019Z,97113.37
2019-01-26T04:41:20.737Z,97122.23
2019-01-26T04:42:24.420Z,97123.27
2019-01-26T04:43:27.240Z,97126.47
2019-01-26T04:44:30.277Z,97121.93
2019-01-26T04:45:33.430Z,97125.17
2019-01-26T04:46:36.402Z,97120.06
2019-01-26T04:47:39.167Z,97123.48
2019-01-26T04:48:42.883Z,97121.06
2019-01-26T04:49:45.710Z,97118.91
2019-01-26T04:50:51.390Z,97122.41
2019-01-26T04:51:54.291Z,97131.20
2019-01-26T04:52:57.085Z,97126.09
2019-01-26T04:54:00.303Z,97129.55
2019-01-26T04:55:03.605Z,97124.14
2019-01-26T04:56:06.632Z,97124.14
2019-01-26T04:57:09.380Z,97137.29
2019-01-26T04:58:12.186Z,97135.13
2019-01-26T04:59:14.901Z,97128.73
2019-01-26T05:00:17.782Z,97122.02
2019-01-26T05:01:20.935Z,97127.90
2019-01-26T05:02:23.675Z,97126.22
2019-01-26T05:03:26.488Z,97120.84
2019-01-26T05:04:29.361Z,97120.33
2019-01-26T05:05:32.261Z,97120.59
2019-01-26T05:06:35.187Z,97120.50
2019-01-26T05:07:47.349Z,97118.29
2019-01-26T05:08:50.184Z,97111.84
2019-01-26T05:09:53.137Z,97104.36
2019-01-26T05:10:55.970Z,97107.04
2019-01-26T05:11:59.294Z,97106.22
2019-01-26T05:13:02.032Z,97097.34
2019-01-26T05:14:05.212Z,97098.98
2019-01-26T05:15:07.985Z,97106.73
2019-01-26T05:16:10.805Z,97100.84
2019-01-26T05:17:13.615Z,97100.84
2019-01-26T05:18:16.336Z,97104.06
2019-01-26T05:19:19.607Z,97095.61
2019-01-26T05:20:23.063Z,97101.67
2019-01-26T05:21:26.386Z,97100.50
2019-01-26T05:22:29.716Z,97091.20
2019-01-26T05:23:32.457Z,97101.91
2019-01-26T05:24:35.290Z,97100.83
2019-01-26T05:25:38.153Z,97105.69
2019-01-26T05:26:42.923Z,97106.77
2019-01-26T05:27:46.235Z,97111.30
2019-01-26T05:28:49.088Z,97104.59
2019-01-26T05:29:51.876Z,97104.59
2019-01-26T05:30:54.705Z,97101.52
2019-01-26T05:31:57.491Z,97101.52
2019-01-26T05:33:03.205Z,97107.30
2019-01-26T05:34:06.254Z,97102.77
2019-01-26T05:35:33.058Z,97110.34
2019-01-26T05:36:46.255Z,97100.52
2019-01-26T05:37:49.011Z,97102.91
2019-01-26T05:38:51.938Z,97099.39
2019-01-26T05:39:56.434Z,97111.17
2019-01-26T05:41:01.567Z,97108.23
2019-01-26T05:42:04.507Z,97108.23
2019-01-26T05:43:07.529Z,97105.40
2019-01-26T05:44:10.308Z,97100.08
2019-01-26T05:45:13.340Z,97100.08
2019-01-26T05:46:16.582Z,97099.97
2019-01-26T05:47:31.855Z,97101.67
2019-01-26T05:48:29.169Z,97104.06
2019-01-26T05:49:32.119Z,97099.30
2019-01-26T05:50:34.852Z,97100.39
2019-01-26T05:51:37.764Z,97108.91
2019-01-26T05:52:40.861Z,97104.13
2019-01-26T05:53:43.678Z,97104.68
2019-01-26T05:54:48.982Z,97101.00
2019-01-26T05:55:51.756Z,97101.00
2019-01-26T05:56:54.586Z,97099.42
2019-01-26T05:58:17.199Z,97089.51
2019-01-26T05:59:20.316Z,97089.51
2019-01-26T06:00:29.499Z,97100.09
2019-01-26T06:01:33.524Z,97095.95
2019-01-26T06:02:36.279Z,97098.70
2019-01-26T06:03:39.324Z,97097.56
2019-01-26T06:04:42.202Z,97095.80
2019-01-26T06:05:45.068Z,97098.08
2019-01-26T06:06:47.887Z,97094.50
2019-01-26T06:07:50.896Z,97094.50
2019-01-26T06:08:53.794Z,97098.33
2019-01-26T06:09:56.906Z,97093.59
2019-01-26T06:10:59.911Z,97098.38
2019-01-26T06:12:02.659Z,97100.45
2019-01-26T06:13:05.457Z,97096.83
2019-01-26T06:14:08.285Z,97096.58
2019-01-26T06:15:11.592Z,97088.36
2019-01-26T06:16:14.939Z,97088.92
2019-01-26T06:17:19.155Z,97088.92
2019-01-26T06:18:22.059Z,97085.98
2019-01-26T06:19:27.466Z,97086.59
2019-01-26T06:20:30.296Z,97071.45
2019-01-26T06:21:33.641Z,97078.48
2019-01-26T06:22:40.861Z,97074.39
2019-01-26T06:23:43.585Z,97078.84
2019-01-26T06:24:46.348Z,97078.84
2019-01-26T06:25:49.160Z,97078.70
2019-01-26T06:26:52.130Z,97081.98
2019-01-26T06:27:55.096Z,97074.13
2019-01-26T06:28:58.418Z,97085.41
2019-01-26T06:43:51.139Z,97078.65
2019-01-26T06:44:56.270Z,97078.65
2019-01-26T06:45:59.139Z,97088.20
2019-01-26T06:47:02.401Z,97078.32
2019-01-26T06:48:05.303Z,97092.32
2019-01-26T06:49:08.945Z,97084.31
2019-01-26T06:50:13.252Z,97081.19
2019-01-26T06:51:16.246Z,97081.19
2019-01-26T06:52:21.754Z,97084.56
2019-01-26T06:53:24.625Z,97077.59
2019-01-26T06:54:29.817Z,97077.59
2019-01-26T06:55:36.239Z,97061.92
2019-01-26T06:56:38.853Z,97081.04
2019-01-26T06:57:42.197Z,97072.36
2019-01-26T06:58:45.075Z,97072.36
2019-01-26T06:59:49.782Z,97056.29
2019-01-26T07:00:54.261Z,97071.27
2019-01-26T07:01:57.612Z,97071.27
2019-01-26T07:03:04.661Z,97066.87
2019-01-26T07:04:09.706Z,97067.77
2019-01-26T07:05:29.914Z,97060.16
2019-01-26T07:06:40.960Z,97060.16
2019-01-26T07:07:44.294Z,97062.78
2019-01-26T07:08:47.244Z,97064.19
2019-01-26T07:09:50.260Z,97064.19
2019-01-26T07:10:53.179Z,97060.80
2019-01-26T07:11:56.113Z,97066.95
2019-01-26T07:13:01.911Z,97062.61
2019-01-26T07:14:05.203Z,97062.61
2019-01-26T07:15:11.047Z,97071.38
2019-01-26T07:16:15.337Z,97081.23
2019-01-26T07:17:18.556Z,97081.23
2019-01-26T07:18:21.574Z,97072.02
2019-01-26T07:19:24.466Z,97072.10
2019-01-26T07:20:27.739Z,97084.20
2019-01-26T07:21:33.079Z,97082.13
2019-01-26T07:22:36.468Z,97076.25
2019-01-26T07:23:39.393Z,97089.39
2019-01-26T07:24:42.405Z,97089.39
2019-01-26T07:25:45.491Z,97083.11
2019-01-26T07:26:48.665Z,97084.03
2019-01-26T07:27:51.617Z,97084.91
2019-01-26T07:28:54.500Z,97084.91
2019-01-26T07:29:57.499Z,97079.78
2019-01-26T07:31:00.973Z,97085.18
2019-01-26T07:32:03.877Z,97078.52
2019-01-26T07:33:10.024Z,97078.92
2019-01-26T07:34:15.851Z,97080.13
2019-01-26T07:35:18.780Z,97072.38
2019-01-26T07:36:21.864Z,97082.09
2019-01-26T07:37:24.769Z,97082.09
2019-01-26T07:38:27.759Z,97075.97
2019-01-26T07:39:30.988Z,97074.38
2019-01-26T07:40:33.921Z,97078.98
2019-01-26T07:41:39.272Z,97075.00
2019-01-26T07:42:41.435Z,97077.89
2019-01-26T07:43:44.386Z,97074.44
2019-01-26T07:44:49.968Z,97080.58
2019-01-26T07:45:57.251Z,97080.58
2019-01-26T07:46:57.764Z,97068.10
2019-01-26T07:48:01.954Z,97068.10
2019-01-26T07:49:05.304Z,97080.22
2019-01-26T07:50:11.197Z,97080.22
2019-01-26T07:51:14.106Z,97085.27
2019-01-26T07:52:18.949Z,97078.14
2019-01-26T07:53:23.448Z,97075.98
2019-01-26T07:54:32.651Z,97075.98
2019-01-26T07:55:35.517Z,97081.02
2019-01-26T07:56:41.626Z,97081.05
2019-01-26T07:57:46.811Z,97070.59
2019-01-26T07:58:51.861Z,97079.48
2019-01-26T07:59:54.736Z,97079.48
2019-01-26T08:00:57.658Z,97076.73
2019-01-26T08:02:00.564Z,97067.37
2019-01-26T08:03:06.783Z,97065.03
2019-01-26T08:04:09.737Z,97058.81
2019-01-26T08:05:12.947Z,97056.31
2019-01-26T08:06:15.908Z,97054.72
2019-01-26T08:07:18.860Z,97046.58
2019-01-26T08:08:21.801Z,97046.58
2019-01-26T08:09:24.705Z,97059.00
2019-01-26T08:10:27.681Z,97064.19
2019-01-26T08:11:30.882Z,97064.19
2019-01-26T08:12:34.247Z,97062.41
2019-01-26T08:13:43.122Z,97053.62
2019-01-26T08:14:46.091Z,97060.78
2019-01-26T08:15:49.483Z,97060.78
2019-01-26T08:16:52.379Z,97049.47
2019-01-26T08:17:55.617Z,97057.72
2019-01-26T08:18:58.520Z,97058.03
2019-01-26T08:20:01.407Z,97056.63
2019-01-26T08:21:04.402Z,97055.75
2019-01-26T08:22:10.482Z,97066.45
2019-01-26T08:23:13.402Z,97041.83
2019-01-26T08:24:16.612Z,97054.34
2019-01-26T08:25:19.495Z,97052.81
2019-01-26T08:26:23.650Z,97053.50
2019-01-26T08:27:28.083Z,97058.95
2019-01-26T08:28:32.641Z,97048.31
2019-01-26T08:29:35.572Z,97058.07
2019-01-26T08:30:38.881Z,97057.10
2019-01-26T08:31:41.889Z,97057.10
2019-01-26T08:32:44.828Z,97056.44
2019-01-26T08:33:47.798Z,97056.44
2019-01-26T08:34:51.146Z,97048.06
2019-01-26T08:35:56.778Z,97054.59
2019-01-26T08:37:02.145Z,97054.59
2019-01-26T08:38:05.064Z,97046.83
2019-01-26T08:39:09.591Z,97037.59
2019-01-26T08:40:12.521Z,97047.23
2019-01-26T08:41:18.374Z,97047.23
2019-01-26T08:42:21.476Z,97052.63
2019-01-26T08:43:25.310Z,97052.63
2019-01-26T08:44:28.717Z,97048.89
2019-01-26T08:45:32.058Z,97048.89
2019-01-26T08:46:41.026Z,97040.04
2019-01-26T08:47:44.337Z,97040.89
2019-01-26T08:48:47.314Z,97046.34
2019-01-26T08:49:50.678Z,97045.67
2019-01-26T08:50:56.661Z,97039.73
2019-01-26T08:51:59.554Z,97042.23
2019-01-26T08:53:02.598Z,97041.32
2019-01-26T08:54:05.635Z,97033.90
2019-01-26T08:55:09.050Z,97042.85
2019-01-26T08:56:12.341Z,97051.96
2019-01-26T08:57:23.563Z,97051.96
2019-01-26T08:58:26.584Z,97059.85
2019-01-26T08:59:29.535Z,97036.25
2019-01-26T09:00:32.434Z,97036.25
2019-01-26T09:01:35.419Z,97044.61
2019-01-26T09:03:09.439Z,97056.66
2019-01-26T09:04:24.788Z,97056.66
2019-01-26T09:05:28.914Z,97057.78
2019-01-26T09:06:40.641Z,97038.88
2019-01-26T09:07:45.184Z,97020.32
2019-01-26T09:08:49.861Z,97045.80
2019-01-26T09:09:52.832Z,97045.80
2019-01-26T09:10:57.954Z,97045.61
2019-01-26T09:12:00.851Z,97057.16
2019-01-26T09:13:04.796Z,97058.00
2019-01-26T09:14:07.740Z,97054.84
2019-01-26T09:15:12.561Z,97054.84
2019-01-26T09:16:22.139Z,97050.68
2019-01-26T09:17:25.040Z,97058.44
2019-01-26T09:18:27.945Z,97058.44
2019-01-26T09:19:33.099Z,97058.00
2019-01-26T09:20:37.891Z,97052.63
2019-01-26T09:21:42.749Z,97047.67
2019-01-26T09:22:45.689Z,97056.56
2019-01-26T09:23:48.661Z,97055.81
2019-01-26T09:24:51.594Z,97050.99
2019-01-26T09:25:55.874Z,97050.05
2019-01-26T09:27:00.823Z,97052.52
2019-01-26T09:28:09.461Z,97041.91
2019-01-26T09:29:12.463Z,97049.20
2019-01-26T09:30:15.408Z,97045.55
2019-01-26T09:31:19.379Z,97055.75
2019-01-26T09:32:22.273Z,97055.75
2019-01-26T09:33:25.200Z,97046.89
2019-01-26T09:34:28.582Z,97032.87
2019-01-26T09:35:32.654Z,97043.19
2019-01-26T09:36:35.639Z,97049.20
2019-01-26T09:37:38.672Z,97044.91
2019-01-26T09:38:41.680Z,97044.91
2019-01-26T09:39:48.987Z,97053.62
2019-01-26T09:40:55.223Z,97053.62
2019-01-26T09:41:58.231Z,97056.00
2019-01-26T09:43:01.177Z,97056.43
2019-01-26T09:44:04.092Z,97056.50
2019-01-26T09:45:10.110Z,97057.28
2019-01-26T09:46:15.887Z,97054.77
2019-01-26T09:47:20.240Z,97054.77
2019-01-26T09:48:23.336Z,97065.60
2019-01-26T09:49:26.292Z,97057.78
2019-01-26T09:50:29.171Z,97057.78
2019-01-26T09:51:32.196Z,97057.84
2019-01-26T09:52:35.151Z,97062.41
2019-01-26T09:53:41.192Z,97043.81
2019-01-26T09:55:02.028Z,97065.35
2019-01-26T09:56:04.927Z,97064.19
2019-01-26T09:57:07.886Z,97074.14
2019-01-26T09:58:11.734Z,97062.28
2019-01-26T09:59:14.788Z,97062.41
2019-01-26T10:00:18.582Z,97062.41
2019-01-26T10:01:24.939Z,97066.19
2019-01-26T10:02:27.874Z,97066.01
2019-01-26T10:03:30.797Z,97063.56
2019-01-26T10:04:34.698Z,97059.77
2019-01-26T10:05:37.605Z,97059.77
2019-01-26T10:06:40.831Z,97068.88
2019-01-26T10:07:43.786Z,97074.39
2019-01-26T10:08:46.743Z,97070.05
2019-01-26T10:09:49.651Z,97070.05
2019-01-26T10:10:52.552Z,97068.66
2019-01-26T10:11:55.482Z,97072.64
2019-01-26T10:12:58.898Z,97077.52
2019-01-26T10:14:02.421Z,97070.30
2019-01-26T10:15:05.769Z,97070.30
2019-01-26T10:16:08.930Z,97074.83
2019-01-26T10:17:21.475Z,97063.21
2019-01-26T10:18:27.879Z,97061.80
2019-01-26T10:19:30.829Z,97071.23
2019-01-26T10:20:33.751Z,97071.23
2019-01-26T10:21:39.175Z,97067.97
2019-01-26T10:22:42.235Z,97067.97
2019-01-26T10:23:48.377Z,97059.39
2019-01-26T10:24:51.547Z,97059.39
2019-01-26T10:25:54.748Z,97057.38
2019-01-26T10:27:00.160Z,97063.48
2019-01-26T10:28:03.201Z,97063.48
2019-01-26T10:29:07.399Z,97063.37
2019-01-26T10:30:10.398Z,97063.37
2019-01-26T10:31:13.447Z,97070.48
2019-01-26T10:32:17.999Z,97058.92
2019-01-26T10:33:28.873Z,97077.02
2019-01-26T10:34:32.699Z,97077.02
2019-01-26T10:35:54.865Z,97066.42
2019-01-26T10:38:23.757Z,97060.19
2019-01-26T10:39:36.218Z,97055.34
2019-01-26T10:41:15.064Z,97058.03
2019-01-26T10:42:22.122Z,97062.19
2019-01-26T10:43:25.430Z,97062.14
2019-01-26T10:44:30.191Z,97075.73
2019-01-26T10:45:35.825Z,97063.15
2019-01-26T10:46:39.261Z,97060.19
2019-01-26T10:47:46.991Z,97065.21
2019-01-26T10:49:00.628Z,97065.53
2019-01-26T10:50:14.985Z,97065.53
2019-01-26T10:51:20.580Z,97053.79
2019-01-26T10:52:23.581Z,97052.20
2019-01-26T10:53:28.976Z,97043.62
2019-01-26T10:54:37.071Z,97051.45
2019-01-26T10:55:43.748Z,97049.57
2019-01-26T10:56:46.653Z,97056.55
2019-01-26T10:58:05.533Z,97043.19
2019-01-26T10:59:04.405Z,97043.19
2019-01-26T11:00:28.314Z,97041.17
2019-01-26T11:01:31.372Z,97041.17
2019-01-26T11:02:35.486Z,97030.72
2019-01-26T11:03:40.217Z,97029.84
2019-01-26T11:04:43.487Z,97029.84
2019-01-26T11:05:46.377Z,97036.70
2019-01-26T11:06:49.641Z,97036.70
2019-01-26T11:07:52.818Z,97041.78
2019-01-26T11:08:55.947Z,97041.78
2019-01-26T11:10:01.697Z,97034.83
2019-01-26T11:11:05.092Z,97034.83
2019-01-26T11:12:10.594Z,97036.89
2019-01-26T11:13:15.938Z,97036.17
2019-01-26T11:14:21.815Z,97036.17
2019-01-26T11:15:29.394Z,97035.99
2019-01-26T11:16:37.015Z,97032.02
2019-01-26T11:17:42.779Z,97032.02
2019-01-26T11:18:49.002Z,97025.22
2019-01-26T11:19:52.419Z,97017.40
2019-01-26T11:20:55.503Z,97034.08
2019-01-26T11:21:59.768Z,97033.61
2019-01-26T11:23:03.249Z,97032.48
2019-01-26T11:24:06.127Z,97028.16
2019-01-26T11:25:11.293Z,97027.66
2019-01-26T11:26:17.221Z,97007.34
2019-01-26T11:27:20.492Z,97007.34
2019-01-26T11:28:30.107Z,97010.93
2019-01-26T11:29:38.814Z,97013.11
2019-01-26T11:43:05.998Z,96994.88
2019-01-26T11:44:09.340Z,96996.73
2019-01-26T11:45:33.801Z,97003.28
2019-01-26T11:46:40.829Z,97003.28
2019-01-26T11:47:45.936Z,96992.38
2019-01-26T11:48:51.183Z,96992.38
2019-01-26T11:49:59.471Z,96984.58
2019-01-26T11:51:19.465Z,96984.58
2019-01-26T11:52:25.255Z,96984.44
2019-01-26T11:53:28.847Z,96983.16
2019-01-26T11:54:47.170Z,96992.59
2019-01-26T11:56:18.344Z,96983.66
2019-01-26T11:57:23.201Z,96983.66
2019-01-26T11:58:26.823Z,96962.13
2019-01-26T11:59:29.872Z,96962.13
2019-01-26T12:00:59.499Z,96969.68
2019-01-26T12:02:29.883Z,96980.67
2019-01-26T12:03:34.886Z,96974.97
2019-01-26T12:04:59.787Z,96969.02
2019-01-26T12:06:09.640Z,96959.68
2019-01-26T12:07:17.503Z,96970.03
2019-01-26T12:08:34.393Z,96958.66
2019-01-26T12:09:33.952Z,96960.70
2019-01-26T12:10:36.793Z,96960.70
2019-01-26T12:11:39.953Z,96970.21
2019-01-26T12:12:45.625Z,96958.41
2019-01-26T12:13:51.166Z,96953.90
2019-01-26T12:14:55.725Z,96959.85
2019-01-26T12:15:58.889Z,96961.69
2019-01-26T12:17:03.464Z,96966.34
2019-01-26T12:18:13.198Z,96966.34
2019-01-26T12:19:22.306Z,96964.60
2019-01-26T12:20:28.131Z,96965.81
2019-01-26T12:21:31.197Z,96964.06
2019-01-26T12:22:36.274Z,96975.70
2019-01-26T12:23:39.249Z,96961.52
2019-01-26T12:24:44.511Z,96954.22
2019-01-26T12:26:03.107Z,96952.80
2019-01-26T12:26:58.853Z,96937.58
2019-01-26T12:28:02.697Z,96957.75
2019-01-26T12:29:05.876Z,96951.94
2019-01-26T12:30:14.390Z,96960.91
2019-01-26T12:31:20.568Z,96964.60
2019-01-26T12:32:24.983Z,96960.48
2019-01-26T12:33:27.894Z,96960.48
2019-01-26T12:34:30.893Z,96942.92
2019-01-26T12:35:34.157Z,96942.92
2019-01-26T12:36:37.054Z,96946.95
2019-01-26T12:37:42.113Z,96946.95
2019-01-26T12:38:45.349Z,96949.73
2019-01-26T12:39:48.335Z,96946.25
2019-01-26T12:40:51.706Z,96951.07
2019-01-26T12:41:54.661Z,96954.58
2019-01-26T12:42:59.309Z,96956.39
2019-01-26T12:44:07.222Z,96944.05
2019-01-26T12:45:11.144Z,96946.09
2019-01-26T12:46:15.589Z,96946.09
2019-01-26T12:47:18.604Z,96940.55
2019-01-26T12:48:22.378Z,96932.22
2019-01-26T12:49:31.207Z,96933.73
2019-01-26T12:50:34.349Z,96947.61
2019-01-26T12:51:37.709Z,96934.22
2019-01-26T12:52:40.813Z,96940.72
2019-01-26T12:53:44.293Z,96941.12
2019-01-26T12:54:47.745Z,96947.05
2019-01-26T12:55:50.998Z,96933.98
2019-01-26T12:56:57.326Z,96944.77
2019-01-26T12:58:06.063Z,96946.19
2019-01-26T12:59:09.794Z,96923.52
2019-01-26T13:00:13.705Z,96946.11
2019-01-26T13:01:18.189Z,96946.11
2019-01-26T13:02:22.414Z,96937.70
2019-01-26T13:03:29.890Z,96948.23